Stations météo

réclame
Mon MeteoGroup
Scatsta, Grande-Bretagne (3006): Température de l'air & dewpoint: 14.07.2019 23:00:00 - 20.07.2019 23:00:00 (BST)Scatsta, Grande-Bretagne (3006): Vitesse du vent: 14.07.2019 23:00:00 - 20.07.2019 23:00:00 (BST)Scatsta, Grande-Bretagne (3006): Direction du vent: 14.07.2019 23:00:00 - 20.07.2019 23:00:00 (BST)Scatsta, Grande-Bretagne (3006): visibility: 14.07.2019 23:00:00 - 20.07.2019 23:00:00 (BST)
Date & Time tt [°C] td [°C] ff [km/h] ff [knt] dd vv [km]
20.07.2019 23:00:00 13,0 13,0 18 10 WSW 6
20.07.2019 22:00:00 13,0 13,0 13 7 SW 3,8
20.07.2019 21:00:00 13,0 13,0 15 8 WSW 2,4
20.07.2019 20:00:00 15,0 15,0 13 7 SSW 10
20.07.2019 19:00:00 15,0 15,0 15 8 ENE 10
20.07.2019 18:00:00 16,0 15,0 11 6 SSE 10
20.07.2019 17:00:00 15,0 15,0 13 7 SE 10
20.07.2019 16:00:00 15,0 15,0 15 8 SSE 7
20.07.2019 15:00:00 14,0 14,0 15 8 ESE 10
20.07.2019 14:00:00 14,0 14,0 34 18 ESE 6
20.07.2019 13:00:00 14,0 13,0 35 19 ESE 1,5
20.07.2019 12:00:00 13,0 13,0 21 11 E 2,0
20.07.2019 11:00:00 13,0 13,0 34 18 E 2,0
20.07.2019 10:00:00 13,0 13,0 26 14 E 9
20.07.2019 09:00:00 13,0 13,0 21 11 ESE 9
20.07.2019 08:00:00 13,0 13,0 21 11 ESE 10
20.07.2019 07:00:00 14,0 13,0 18 10 ESE 10
20.07.2019 06:00:00 14,0 13,0 22 12 SE 10
20.07.2019 05:00:00 14,0 12,0 26 14 SE 10
20.07.2019 04:00:00 13,0 12,0 28 15 SE 10
20.07.2019 03:00:00 14,0 13,0 28 15 SE 10
20.07.2019 02:00:00 13,0 13,0 22 12 SE 10
20.07.2019 01:00:00 13,0 12,0 24 13 SE 10
20.07.2019 00:00:00 13,0 12,0 26 14 SSE 10
19.07.2019 23:00:00 13,0 12,0 16 9 SSE 10
19.07.2019 22:00:00 14,0 12,0 26 14 SSE 10
19.07.2019 21:00:00 14,0 12,0 18 10 SSE 10
19.07.2019 20:00:00 16,0 12,0 24 13 S 10
19.07.2019 19:00:00 17,0 12,0 22 12 SSE 10
19.07.2019 18:00:00 17,0 12,0 21 11 S 10
19.07.2019 17:00:00 17,0 12,0 26 14 SSE 10
19.07.2019 16:00:00 17,0 11,0 22 12 S 10
19.07.2019 15:00:00 18,0 12,0 22 12 SW 10
19.07.2019 14:00:00 17,0 11,0 21 11 SSW 10
19.07.2019 13:00:00 17,0 12,0 22 12 SSW 10
19.07.2019 12:00:00 17,0 12,0 22 12 SSW 10
19.07.2019 11:00:00 17,0 11,0 26 14 SSW 10
19.07.2019 10:00:00 16,0 11,0 28 15 SSW 10
19.07.2019 09:00:00 16,0 12,0 22 12 S 10
19.07.2019 08:00:00 15,0 12,0 15 8 S 10
19.07.2019 07:00:00 13,0 11,0 18 10 SSW 10
19.07.2019 06:00:00 13,0 12,0 15 8 SSW 10
19.07.2019 05:00:00 13,0 11,0 9 5 SSW 10
19.07.2019 04:00:00 13,0 11,0 4 2 - 10
19.07.2019 03:00:00 12,0 11,0 5 3 - 10
19.07.2019 02:00:00 13,0 12,0 13 7 S 10
19.07.2019 01:00:00 12,0 11,0 18 10 SSE 10
19.07.2019 00:00:00 13,0 11,0 13 7 SSE 10
18.07.2019 23:00:00 12,0 10,0 16 9 S 10
18.07.2019 22:00:00 12,0 11,0 13 7 SSW 10
18.07.2019 21:00:00 14,0 11,0 18 10 SSW 10
18.07.2019 20:00:00 15,0 11,0 24 13 SSW 10
18.07.2019 19:00:00 16,0 11,0 18 10 S 10
18.07.2019 18:00:00 15,0 12,0 21 11 SSW 10
18.07.2019 17:00:00 17,0 12,0 15 8 WSW 10
18.07.2019 16:00:00 16,0 12,0 16 9 WSW 10
18.07.2019 15:00:00 15,0 13,0 18 10 WSW 10
18.07.2019 14:00:00 16,0 13,0 16 9 WSW 10
18.07.2019 13:00:00 15,0 12,0 13 7 WSW 10
18.07.2019 12:00:00 16,0 13,0 15 8 WSW 10
18.07.2019 11:00:00 14,0 12,0 13 7 SW 10
18.07.2019 10:00:00 14,0 13,0 15 8 WSW 10
18.07.2019 09:00:00 12,0 12,0 13 7 WSW 10
18.07.2019 08:00:00 12,0 12,0 11 6 WSW 7
18.07.2019 07:00:00 12,0 12,0 11 6 SW 10
18.07.2019 06:00:00 12,0 12,0 9 5 SW 4,2
18.07.2019 05:00:00 13,0 12,0 9 5 SW 3,5
18.07.2019 04:00:00 13,0 13,0 13 7 SSW 5
18.07.2019 03:00:00 14,0 13,0 21 11 SSE 10
18.07.2019 02:00:00 14,0 13,0 21 11 SSE 3,9
18.07.2019 01:00:00 14,0 13,0 26 14 SSE 10
18.07.2019 00:00:00 14,0 13,0 28 15 SSE 10
17.07.2019 23:00:00 14,0 13,0 29 16 SSE 10
17.07.2019 22:00:00 14,0 13,0 26 14 SSE 10
17.07.2019 21:00:00 14,0 13,0 26 14 SE 10
17.07.2019 20:00:00 14,0 13,0 24 13 SSE 10
17.07.2019 19:00:00 14,0 13,0 22 12 SSE 7
17.07.2019 18:00:00 14,0 13,0 22 12 SSE 7
17.07.2019 17:00:00 14,0 13,0 31 17 SSE 10
17.07.2019 16:00:00 14,0 13,0 34 18 SSE 4,0
17.07.2019 15:00:00 14,0 13,0 39 21 SE 1,0
17.07.2019 14:00:00 14,0 13,0 42 23 SE 2,0
17.07.2019 13:00:00 14,0 13,0 35 19 SE 2,5
17.07.2019 12:00:00 14,0 13,0 39 21 SE 1,5
17.07.2019 11:00:00 13,0 13,0 41 22 SE 2,5
17.07.2019 10:00:00 14,0 13,0 39 21 SE 10
17.07.2019 09:00:00 13,0 12,0 39 21 SE 10
17.07.2019 08:00:00 13,0 12,0 29 16 SSE 7
17.07.2019 07:00:00 12,0 12,0 24 13 SE 7
17.07.2019 06:00:00 12,0 12,0 22 12 SE 5
17.07.2019 05:00:00 12,0 12,0 11 6 E 10
17.07.2019 04:00:00 12,0 12,0 8 4 S 10
17.07.2019 03:00:00 12,0 11,0 5 3 - 10
17.07.2019 02:00:00 12,0 12,0 4 2 - 10
17.07.2019 01:00:00 12,0 11,0 8 4 SE 10
17.07.2019 00:00:00 13,0 12,0 16 9 S 10
16.07.2019 23:00:00 13,0 12,0 13 7 S 6
16.07.2019 22:00:00 13,0 12,0 4 2 - 10
16.07.2019 21:00:00 13,0 13,0 5 3 - 10
16.07.2019 20:00:00 14,0 13,0 13 7 SSE 10
16.07.2019 19:00:00 14,0 13,0 15 8 SSE 10
16.07.2019 18:00:00 14,0 13,0 16 9 SSE 10
16.07.2019 17:00:00 15,0 13,0 18 10 SSE 10
16.07.2019 16:00:00 15,0 13,0 15 8 SW 10
16.07.2019 15:00:00 15,0 13,0 15 8 SSE 10
16.07.2019 14:00:00 14,0 13,0 15 8 SSE 10
16.07.2019 13:00:00 14,0 12,0 18 10 SSE 10
16.07.2019 12:00:00 13,0 12,0 22 12 SSE 10
16.07.2019 11:00:00 13,0 12,0 21 11 SE 8
16.07.2019 10:00:00 12,0 12,0 22 12 SSE 5
16.07.2019 09:00:00 12,0 12,0 22 12 SSE 1,5
16.07.2019 08:00:00 12,0 12,0 18 10 SE 1,3
16.07.2019 07:00:00 12,0 12,0 16 9 SE 1,5
16.07.2019 06:00:00 12,0 12,0 15 8 SE 2,0
16.07.2019 05:00:00 12,0 11,0 5 3 - 4,0
16.07.2019 04:00:00 12,0 11,0 9 5 SSW 10
16.07.2019 03:00:00 12,0 12,0 8 4 S 10
16.07.2019 02:00:00 12,0 11,0 8 4 ESE 3,3
16.07.2019 01:00:00 12,0 12,0 9 5 E 0,5
16.07.2019 00:00:00 12,0 12,0 4 2 N 8
15.07.2019 23:00:00 12,0 12,0 2 1 - 10
15.07.2019 22:00:00 12,0 12,0 9 5 ENE 10
15.07.2019 21:00:00 14,0 12,0 8 4 NNE 10
15.07.2019 20:00:00 14,0 12,0 4 2 - 10
15.07.2019 19:00:00 14,0 12,0 5 3 - 10
15.07.2019 18:00:00 14,0 12,0 15 8 W 10
15.07.2019 17:00:00 15,0 13,0 15 8 WSW 10
15.07.2019 16:00:00 15,0 14,0 9 5 W 10
15.07.2019 15:00:00 15,0 13,0 9 5 W 10
15.07.2019 14:00:00 15,0 13,0 15 8 WNW 10
15.07.2019 13:00:00 15,0 13,0 13 7 WNW 10
15.07.2019 12:00:00 15,0 13,0 15 8 WNW 10
15.07.2019 11:00:00 14,0 13,0 21 11 WNW 10
15.07.2019 10:00:00 13,0 13,0 18 10 W 2,0
15.07.2019 09:00:00 13,0 13,0 22 12 W 1,0
15.07.2019 08:00:00 - - - - - -
15.07.2019 07:00:00 - - - - - -
15.07.2019 06:00:00 12,0 12,0 18 10 WSW 4,0
15.07.2019 05:00:00 - - - - - -
15.07.2019 04:00:00 - - - - - -
15.07.2019 03:00:00 - - - - - -
15.07.2019 02:00:00 - - - - - -
15.07.2019 01:00:00 - - - - - -
15.07.2019 00:00:00 - - - - - -
14.07.2019 23:00:00 - - - - - -

tt = Température de l'air
td = dewpoint
ff = Vitesse du vent
dd = Direction du vent
vv = visibility

stations d'obs. à proximité